createdAt,value
2023-04-21T00:00:59.617Z,7.18
2023-04-21T00:03:28.188Z,7.18
2023-04-21T00:05:58.174Z,7.17
2023-04-21T00:08:27.999Z,7.16
2023-04-21T00:10:54.970Z,7.15
2023-04-21T00:13:22.421Z,7.13
2023-04-21T00:15:49.585Z,7.12
2023-04-21T00:18:17.483Z,7.10
2023-04-21T00:20:44.480Z,7.10
2023-04-21T00:23:11.211Z,7.10
2023-04-21T00:25:37.928Z,7.10
2023-04-21T00:28:05.055Z,7.10
2023-04-21T00:30:31.953Z,7.09
2023-04-21T00:32:58.790Z,7.10
2023-04-21T00:35:25.981Z,7.11
2023-04-21T00:37:54.305Z,7.12
2023-04-21T00:40:21.142Z,7.12
2023-04-21T00:42:48.358Z,7.13
2023-04-21T00:45:15.380Z,7.14
2023-04-21T00:47:42.482Z,7.13
2023-04-21T00:50:11.334Z,7.14
2023-04-21T00:52:41.648Z,7.15
2023-04-21T00:55:08.832Z,7.14
2023-04-21T00:57:36.404Z,7.14
2023-04-21T01:00:05.602Z,7.14
2023-04-21T01:02:34.730Z,7.15
2023-04-21T01:05:01.837Z,7.14
2023-04-21T01:07:29.033Z,7.14
2023-04-21T01:09:56.718Z,7.12
2023-04-21T01:12:23.544Z,7.11
2023-04-21T01:14:53.628Z,7.09
2023-04-21T01:17:20.932Z,7.07
2023-04-21T01:19:47.725Z,7.06
2023-04-21T01:22:16.314Z,7.05
2023-04-21T01:24:43.953Z,7.05
2023-04-21T01:27:16.085Z,7.04
2023-04-21T01:29:43.330Z,7.01
2023-04-21T01:32:12.688Z,7.01
2023-04-21T01:34:41.733Z,7.01
2023-04-21T01:37:11.390Z,7.02
2023-04-21T01:39:39.904Z,7.02
2023-04-21T01:42:06.979Z,7.00
2023-04-21T01:44:33.917Z,6.98
2023-04-21T01:47:01.145Z,6.97
2023-04-21T01:49:28.172Z,6.96
2023-04-21T01:51:55.389Z,6.95
2023-04-21T01:54:22.217Z,6.95
2023-04-21T01:56:49.009Z,6.95
2023-04-21T01:59:16.314Z,6.94
2023-04-21T02:01:43.462Z,6.93
2023-04-21T02:04:10.668Z,6.92
2023-04-21T02:06:37.767Z,6.90
2023-04-21T02:09:06.326Z,6.90
2023-04-21T02:11:33.519Z,6.88
2023-04-21T02:14:00.496Z,6.86
2023-04-21T02:16:27.380Z,6.87
2023-04-21T02:18:57.215Z,6.88
2023-04-21T02:21:24.235Z,6.89
2023-04-21T02:23:51.402Z,6.90
2023-04-21T02:26:18.607Z,6.90
2023-04-21T02:28:45.578Z,6.91
2023-04-21T02:31:16.849Z,6.91
2023-04-21T02:33:44.558Z,6.91
2023-04-21T02:36:11.705Z,6.92
2023-04-21T02:38:38.713Z,6.93
2023-04-21T02:41:05.674Z,6.93
2023-04-21T02:43:34.091Z,6.94
2023-04-21T02:46:06.199Z,6.94
2023-04-21T02:48:34.968Z,6.95
2023-04-21T02:51:01.782Z,6.94
2023-04-21T02:53:28.626Z,6.94
2023-04-21T02:55:55.807Z,6.94
2023-04-21T02:58:23.590Z,6.95
2023-04-21T03:00:50.949Z,6.94
2023-04-21T03:03:17.940Z,6.94
2023-04-21T03:05:45.100Z,6.94
2023-04-21T03:08:12.350Z,6.94
2023-04-21T03:10:39.413Z,6.95
2023-04-21T03:13:06.306Z,6.94
2023-04-21T03:15:33.884Z,6.94
2023-04-21T03:18:02.294Z,6.92
2023-04-21T03:20:29.974Z,6.90
2023-04-21T03:22:57.265Z,6.85
2023-04-21T03:25:24.144Z,6.82
2023-04-21T03:27:51.013Z,6.79
2023-04-21T03:30:18.188Z,6.77
2023-04-21T03:32:45.291Z,6.77
2023-04-21T03:35:12.147Z,6.76
2023-04-21T03:37:39.347Z,6.76
2023-04-21T03:40:09.562Z,6.76
2023-04-21T03:42:36.751Z,6.75
2023-04-21T03:45:04.752Z,6.74
2023-04-21T03:47:33.246Z,6.76
2023-04-21T03:50:00.222Z,6.77
2023-04-21T03:52:26.962Z,6.77
2023-04-21T03:54:53.926Z,6.78
2023-04-21T03:57:20.850Z,6.79
2023-04-21T03:59:47.808Z,6.78
2023-04-21T04:02:14.886Z,6.79
2023-04-21T04:04:42.168Z,6.80
2023-04-21T04:07:09.512Z,6.81
2023-04-21T04:09:36.419Z,6.83
2023-04-21T04:12:03.702Z,6.84
2023-04-21T04:14:31.567Z,6.85
2023-04-21T04:16:58.865Z,6.87
2023-04-21T04:19:32.357Z,6.87
2023-04-21T04:22:00.637Z,6.89
2023-04-21T04:24:27.864Z,6.91
2023-04-21T04:26:54.753Z,6.92
2023-04-21T04:29:22.017Z,6.95
2023-04-21T04:31:52.348Z,6.98
2023-04-21T04:34:22.787Z,7.02
2023-04-21T04:36:50.722Z,7.06
2023-04-21T04:39:17.660Z,7.10
2023-04-21T04:41:44.752Z,7.13
2023-04-21T04:44:11.552Z,7.18
2023-04-21T04:46:38.961Z,7.25
2023-04-21T04:49:06.009Z,7.32
2023-04-21T04:51:37.494Z,7.41
2023-04-21T04:54:04.570Z,7.51
2023-04-21T04:56:32.519Z,7.61
2023-04-21T04:58:59.415Z,7.71
2023-04-21T05:01:30.153Z,7.81
2023-04-21T05:03:57.220Z,7.94
2023-04-21T05:06:24.263Z,8.04
2023-04-21T05:08:51.223Z,8.14
2023-04-21T05:11:18.349Z,8.25
2023-04-21T05:13:45.240Z,8.34
2023-04-21T05:16:12.393Z,8.38
2023-04-21T05:18:40.095Z,8.40
2023-04-21T05:21:07.182Z,8.43
2023-04-21T05:23:34.586Z,8.46
2023-04-21T05:26:04.133Z,8.50
2023-04-21T05:28:32.096Z,8.56
2023-04-21T05:30:59.036Z,8.63
2023-04-21T05:33:26.152Z,8.68
2023-04-21T05:35:55.697Z,8.70
2023-04-21T05:38:22.660Z,8.74
2023-04-21T05:40:55.548Z,8.78
2023-04-21T05:43:22.564Z,8.84
2023-04-21T05:45:49.366Z,8.90
2023-04-21T05:48:16.080Z,8.96
2023-04-21T05:50:43.163Z,9.03
2023-04-21T05:53:10.102Z,9.10
2023-04-21T05:55:37.067Z,9.16
2023-04-21T05:58:04.916Z,9.22
2023-04-21T06:00:33.044Z,9.26
2023-04-21T06:03:00.387Z,9.33
2023-04-21T06:05:27.468Z,9.42
2023-04-21T06:07:54.743Z,9.57
2023-04-21T06:10:21.870Z,9.76
2023-04-21T06:12:48.848Z,9.98
2023-04-21T06:15:15.801Z,10.18
2023-04-21T06:17:43.105Z,10.38
2023-04-21T06:20:11.217Z,10.60
2023-04-21T06:22:38.474Z,10.80
2023-04-21T06:25:05.903Z,11.02
2023-04-21T06:27:33.503Z,11.25
2023-04-21T06:30:00.667Z,11.45
2023-04-21T06:32:27.734Z,11.63
2023-04-21T06:34:54.957Z,11.84
2023-04-21T06:37:21.803Z,12.03
2023-04-21T06:39:48.676Z,12.17
2023-04-21T06:42:15.516Z,12.26
2023-04-21T06:44:42.677Z,12.36
2023-04-21T06:47:09.675Z,12.50
2023-04-21T06:49:36.994Z,12.65
2023-04-21T06:52:04.249Z,12.72
2023-04-21T06:54:31.302Z,12.71
2023-04-21T06:56:58.246Z,12.66
2023-04-21T06:59:25.442Z,12.57
2023-04-21T07:01:52.609Z,12.48
2023-04-21T07:04:19.734Z,12.38
2023-04-21T07:06:49.009Z,12.28
2023-04-21T07:09:15.965Z,12.25
2023-04-21T07:11:43.245Z,12.22
2023-04-21T07:14:10.469Z,12.19
2023-04-21T07:16:38.014Z,12.21
2023-04-21T07:19:04.964Z,12.23
2023-04-21T07:21:35.634Z,12.26
2023-04-21T07:24:02.926Z,12.35
2023-04-21T07:26:30.343Z,12.52
2023-04-21T07:28:57.994Z,12.72
2023-04-21T07:31:24.831Z,12.93
2023-04-21T07:33:51.864Z,13.07
2023-04-21T07:36:18.782Z,13.13
2023-04-21T07:38:45.838Z,13.15
2023-04-21T07:41:12.889Z,13.11
2023-04-21T07:43:40.630Z,13.01
2023-04-21T07:46:07.629Z,12.91
2023-04-21T07:48:34.658Z,12.79
2023-04-21T07:51:02.914Z,12.72
2023-04-21T07:53:30.402Z,12.66
2023-04-21T07:55:57.728Z,12.64
2023-04-21T07:58:24.689Z,12.66
2023-04-21T08:00:51.616Z,12.66
2023-04-21T08:03:18.786Z,12.57
2023-04-21T08:05:47.016Z,12.47
2023-04-21T08:08:19.646Z,12.39
2023-04-21T08:10:46.535Z,12.39
2023-04-21T08:13:13.390Z,12.36
2023-04-21T08:15:40.283Z,12.30
2023-04-21T08:18:08.145Z,12.37
2023-04-21T08:20:35.204Z,12.52
2023-04-21T08:23:02.341Z,12.72
2023-04-21T08:25:29.336Z,12.83
2023-04-21T08:27:56.202Z,12.86
2023-04-21T08:30:23.222Z,12.95
2023-04-21T08:32:50.515Z,13.00
2023-04-21T08:35:17.387Z,13.08
2023-04-21T08:37:45.100Z,13.18
2023-04-21T08:40:12.066Z,13.27
2023-04-21T08:42:39.023Z,13.25
2023-04-21T08:45:06.515Z,13.16
2023-04-21T08:47:34.059Z,13.10
2023-04-21T08:50:01.025Z,13.06
2023-04-21T08:52:27.960Z,13.01
2023-04-21T08:54:55.177Z,13.03
2023-04-21T08:57:22.322Z,13.08
2023-04-21T08:59:49.140Z,13.11
2023-04-21T09:02:17.291Z,13.13
2023-04-21T09:07:33.448Z,13.13
2023-04-21T09:10:00.465Z,13.17
2023-04-21T09:12:31.012Z,13.25
2023-04-21T09:14:58.115Z,13.26
2023-04-21T09:17:33.152Z,13.23
2023-04-21T09:20:15.850Z,13.07
2023-04-21T09:22:42.996Z,12.94
2023-04-21T09:25:10.424Z,12.86
2023-04-21T09:27:37.816Z,12.82
2023-04-21T09:30:08.167Z,12.75
2023-04-21T09:32:37.603Z,12.75
2023-04-21T09:35:09.169Z,12.80
2023-04-21T09:37:37.605Z,12.81
2023-04-21T09:40:05.715Z,12.71
2023-04-21T09:42:38.188Z,12.57
2023-04-21T09:45:28.332Z,12.47
2023-04-21T09:47:57.961Z,12.38
2023-04-21T09:50:51.266Z,12.33
2023-04-21T09:53:14.734Z,12.26
2023-04-21T09:55:41.651Z,12.21
2023-04-21T09:58:09.206Z,12.14
2023-04-21T10:00:38.771Z,12.13
2023-04-21T10:03:11.539Z,12.15
2023-04-21T10:05:41.891Z,12.18
2023-04-21T10:08:11.913Z,12.28
2023-04-21T10:10:40.837Z,12.30
2023-04-21T10:13:15.595Z,12.21
2023-04-21T10:15:42.605Z,12.13
2023-04-21T10:18:21.158Z,12.05
2023-04-21T10:21:18.887Z,11.94
2023-04-21T10:23:47.461Z,11.87
2023-04-21T10:26:14.918Z,11.81
2023-04-21T10:28:51.932Z,11.72
2023-04-21T10:31:38.643Z,11.59
2023-04-21T10:34:05.638Z,11.43
2023-04-21T10:36:48.922Z,11.31
2023-04-21T10:39:30.902Z,11.25
2023-04-21T10:41:58.575Z,11.17
2023-04-21T10:44:28.035Z,11.12
2023-04-21T10:46:55.939Z,11.08
2023-04-21T10:49:29.957Z,11.05
2023-04-21T10:52:02.842Z,11.10
2023-04-21T10:54:45.016Z,11.27
2023-04-21T10:57:18.065Z,11.44
2023-04-21T10:59:45.429Z,11.53
2023-04-21T11:02:14.102Z,11.59
2023-04-21T11:04:44.955Z,11.65
2023-04-21T11:07:13.075Z,11.70
2023-04-21T11:09:40.712Z,11.63
2023-04-21T11:12:11.253Z,11.53
2023-04-21T11:14:39.206Z,11.48
2023-04-21T11:17:11.176Z,11.49
2023-04-21T11:19:39.930Z,11.50
2023-04-21T11:22:06.789Z,11.47
2023-04-21T11:24:33.526Z,11.49
2023-04-21T11:27:01.568Z,11.55
2023-04-21T11:29:31.401Z,11.64
2023-04-21T11:31:58.683Z,11.79
2023-04-21T11:34:25.865Z,11.94
2023-04-21T11:36:52.650Z,12.01
2023-04-21T11:39:21.764Z,12.06
2023-04-21T11:41:50.095Z,12.09
2023-04-21T11:44:34.129Z,12.16
2023-04-21T11:47:11.438Z,12.21
2023-04-21T11:49:46.511Z,12.24
2023-04-21T11:52:27.499Z,12.27
2023-04-21T11:54:56.589Z,12.32
2023-04-21T11:57:24.907Z,12.37
2023-04-21T11:59:52.352Z,12.41
2023-04-21T12:02:29.857Z,12.44
2023-04-21T12:04:58.786Z,12.47
2023-04-21T12:07:26.264Z,12.45
2023-04-21T12:09:53.260Z,12.49
2023-04-21T12:12:21.656Z,12.55
2023-04-21T12:14:49.512Z,12.59
2023-04-21T12:17:16.144Z,12.58
2023-04-21T12:19:43.051Z,12.53
2023-04-21T12:22:14.788Z,12.53
2023-04-21T12:24:42.207Z,12.56
2023-04-21T12:27:09.465Z,12.59
2023-04-21T12:29:37.906Z,12.61
2023-04-21T12:32:05.651Z,12.60
2023-04-21T12:34:33.683Z,12.62
2023-04-21T12:37:00.663Z,12.70
2023-04-21T12:39:28.517Z,12.75
2023-04-21T12:41:57.116Z,12.77
2023-04-21T12:44:24.273Z,12.81
2023-04-21T12:46:52.071Z,12.84
2023-04-21T12:49:19.120Z,12.83
2023-04-21T12:51:46.651Z,12.87
2023-04-21T12:54:13.906Z,12.89
2023-04-21T12:56:41.796Z,12.91
2023-04-21T12:59:09.887Z,12.89
2023-04-21T13:01:38.188Z,12.89
2023-04-21T13:04:05.795Z,12.93
2023-04-21T13:06:35.449Z,12.98
2023-04-21T13:09:02.565Z,13.00
2023-04-21T13:11:29.627Z,13.03
2023-04-21T13:13:57.639Z,13.02
2023-04-21T13:16:24.575Z,12.95
2023-04-21T13:18:51.780Z,12.83
2023-04-21T13:21:18.812Z,12.84
2023-04-21T13:23:45.802Z,12.84
2023-04-21T13:26:12.803Z,12.78
2023-04-21T13:28:40.071Z,12.75
2023-04-21T13:31:07.221Z,12.76
2023-04-21T13:33:34.696Z,12.73
2023-04-21T13:36:02.834Z,12.75
2023-04-21T13:38:29.971Z,12.80
2023-04-21T13:40:57.089Z,12.78
2023-04-21T13:43:24.197Z,12.71
2023-04-21T13:45:51.609Z,12.70
2023-04-21T13:48:21.645Z,12.74
2023-04-21T13:50:48.504Z,12.81
2023-04-21T13:53:15.663Z,12.89
2023-04-21T13:55:46.163Z,12.91
2023-04-21T13:58:17.408Z,12.91
2023-04-21T14:00:44.429Z,12.85
2023-04-21T14:03:12.099Z,12.81
2023-04-21T14:05:39.164Z,12.79
2023-04-21T14:08:06.251Z,12.80
2023-04-21T14:10:33.409Z,12.81
2023-04-21T14:13:01.026Z,12.82
2023-04-21T14:15:27.938Z,12.86
2023-04-21T14:17:55.985Z,12.87
2023-04-21T14:20:22.892Z,12.82
2023-04-21T14:22:49.993Z,12.74
2023-04-21T14:25:17.030Z,12.71
2023-04-21T14:27:43.851Z,12.71
2023-04-21T14:30:11.230Z,12.73
2023-04-21T14:32:44.049Z,12.73
2023-04-21T14:35:14.040Z,12.69
2023-04-21T14:37:41.035Z,12.69
2023-04-21T14:40:08.725Z,12.73
2023-04-21T14:42:36.071Z,12.73
2023-04-21T14:45:03.225Z,12.74
2023-04-21T14:47:30.544Z,12.73
2023-04-21T14:49:57.317Z,12.70
2023-04-21T14:52:25.208Z,12.65
2023-04-21T14:54:52.180Z,12.55
2023-04-21T14:57:21.440Z,12.49
2023-04-21T14:59:50.053Z,12.47
2023-04-21T15:02:17.092Z,12.50
2023-04-21T15:04:44.249Z,12.52
2023-04-21T15:07:11.612Z,12.50
2023-04-21T15:09:45.153Z,12.47
2023-04-21T15:12:12.954Z,12.44
2023-04-21T15:14:40.125Z,12.44
2023-04-21T15:17:07.310Z,12.41
2023-04-21T15:19:34.669Z,12.36
2023-04-21T15:22:04.133Z,12.31
2023-04-21T15:24:31.092Z,12.24
2023-04-21T15:26:58.178Z,12.19
2023-04-21T15:29:25.058Z,12.17
2023-04-21T15:31:52.127Z,12.16
2023-04-21T15:34:19.114Z,12.16
2023-04-21T15:36:46.119Z,12.10
2023-04-21T15:39:15.898Z,12.01
2023-04-21T15:41:42.744Z,11.97
2023-04-21T15:44:09.835Z,11.92
2023-04-21T15:46:37.055Z,11.85
2023-04-21T15:49:04.324Z,11.78
2023-04-21T15:51:35.144Z,11.73
2023-04-21T15:54:02.080Z,11.71
2023-04-21T15:56:29.702Z,11.72
2023-04-21T15:58:56.548Z,11.71
2023-04-21T16:01:23.642Z,11.69
2023-04-21T16:03:50.969Z,11.70
2023-04-21T16:06:18.056Z,11.69
2023-04-21T16:08:45.208Z,11.64
2023-04-21T16:11:11.963Z,11.54
2023-04-21T16:13:40.174Z,11.39
2023-04-21T16:16:08.287Z,11.31
2023-04-21T16:18:35.715Z,11.30
2023-04-21T16:21:02.822Z,11.29
2023-04-21T16:23:29.801Z,11.27
2023-04-21T16:25:56.647Z,11.25
2023-04-21T16:28:23.600Z,11.25
2023-04-21T16:30:50.711Z,11.25
2023-04-21T16:33:17.964Z,11.26
2023-04-21T16:35:44.916Z,11.27
2023-04-21T16:38:11.695Z,11.28
2023-04-21T16:40:38.725Z,11.27
2023-04-21T16:43:06.538Z,11.25
2023-04-21T16:45:35.126Z,11.19
2023-04-21T16:48:03.160Z,11.11
2023-04-21T16:50:35.785Z,11.07
2023-04-21T16:53:03.226Z,11.05
2023-04-21T16:55:31.029Z,11.07
2023-04-21T16:57:58.874Z,11.07
2023-04-21T17:00:26.463Z,11.05
2023-04-21T17:02:54.146Z,11.04
2023-04-21T17:05:24.733Z,11.03
2023-04-21T17:07:51.937Z,11.00
2023-04-21T17:10:19.029Z,10.88
2023-04-21T17:12:46.390Z,10.78
2023-04-21T17:15:13.428Z,10.72
2023-04-21T17:17:42.305Z,10.63
2023-04-21T17:20:10.894Z,10.55
2023-04-21T17:22:39.602Z,10.50
2023-04-21T17:25:06.847Z,10.48
2023-04-21T17:27:37.322Z,10.43
2023-04-21T17:30:05.094Z,10.35
2023-04-21T17:32:33.777Z,10.22
2023-04-21T17:35:02.358Z,10.15
2023-04-21T17:37:29.774Z,10.12
2023-04-21T17:39:57.390Z,10.09
2023-04-21T17:42:26.025Z,10.01
2023-04-21T17:44:52.872Z,9.99
2023-04-21T17:47:19.622Z,9.98
2023-04-21T17:49:46.343Z,9.99
2023-04-21T17:52:14.801Z,10.00
2023-04-21T17:54:45.604Z,9.99
2023-04-21T17:57:12.843Z,9.99
2023-04-21T17:59:40.185Z,10.00
2023-04-21T18:02:07.909Z,10.00
2023-04-21T18:04:36.028Z,9.98
2023-04-21T18:07:03.178Z,9.97
2023-04-21T18:09:31.699Z,9.97
2023-04-21T18:11:59.004Z,9.95
2023-04-21T18:14:26.472Z,9.89
2023-04-21T18:16:54.220Z,9.85
2023-04-21T18:19:21.071Z,9.83
2023-04-21T18:21:47.812Z,9.81
2023-04-21T18:24:15.001Z,9.74
2023-04-21T18:26:42.344Z,9.68
2023-04-21T18:29:08.995Z,9.61
2023-04-21T18:31:35.930Z,9.52
2023-04-21T18:34:02.748Z,9.40
2023-04-21T18:36:32.318Z,9.32
2023-04-21T18:38:59.817Z,9.25
2023-04-21T18:41:26.846Z,9.20
2023-04-21T18:43:53.794Z,9.19
2023-04-21T18:46:20.651Z,9.24
2023-04-21T18:48:47.383Z,9.28
2023-04-21T18:51:14.365Z,9.32
2023-04-21T18:53:42.553Z,9.37
2023-04-21T18:56:09.199Z,9.42
2023-04-21T18:58:35.919Z,9.46
2023-04-21T19:01:02.723Z,9.48
2023-04-21T19:03:32.363Z,9.50
2023-04-21T19:05:59.297Z,9.51
2023-04-21T19:08:38.748Z,9.52
2023-04-21T19:11:10.780Z,9.52
2023-04-21T19:13:38.023Z,9.52
2023-04-21T19:16:05.702Z,9.52
2023-04-21T19:18:32.853Z,9.50
2023-04-21T19:20:59.695Z,9.50
2023-04-21T19:23:26.465Z,9.48
2023-04-21T19:25:56.798Z,9.48
2023-04-21T19:28:23.538Z,9.48
2023-04-21T19:30:50.190Z,9.48
2023-04-21T19:33:17.421Z,9.48
2023-04-21T19:35:44.297Z,9.48
2023-04-21T19:38:11.303Z,9.47
2023-04-21T19:40:38.163Z,9.47
2023-04-21T19:43:08.023Z,9.46
2023-04-21T19:45:35.472Z,9.42
2023-04-21T19:48:02.299Z,9.41
2023-04-21T19:50:30.760Z,9.40
2023-04-21T19:52:57.491Z,9.40
2023-04-21T19:55:24.653Z,9.40
2023-04-21T19:57:51.959Z,9.41
2023-04-21T20:00:18.939Z,9.41
2023-04-21T20:02:45.867Z,9.40
2023-04-21T20:05:12.915Z,9.38
2023-04-21T20:07:40.038Z,9.37
2023-04-21T20:10:07.321Z,9.35
2023-04-21T20:12:34.280Z,9.34
2023-04-21T20:15:01.322Z,9.33
2023-04-21T20:17:28.517Z,9.33
2023-04-21T20:19:55.384Z,9.30
2023-04-21T20:22:22.206Z,9.29
2023-04-21T20:24:51.421Z,9.27
2023-04-21T20:27:18.115Z,9.23
2023-04-21T20:29:46.119Z,9.20
2023-04-21T20:32:13.376Z,9.19
2023-04-21T20:34:40.821Z,9.18
2023-04-21T20:37:09.583Z,9.17
2023-04-21T20:39:37.928Z,9.16
2023-04-21T20:42:13.126Z,9.15
2023-04-21T20:44:41.723Z,9.14
2023-04-21T20:47:08.986Z,9.13
2023-04-21T20:49:36.258Z,9.11
2023-04-21T20:52:03.364Z,9.09
2023-04-21T20:54:30.502Z,9.08
2023-04-21T20:56:57.268Z,9.06
2023-04-21T20:59:24.028Z,9.03
2023-04-21T21:01:50.937Z,9.01
2023-04-21T21:04:18.170Z,8.99
2023-04-21T21:06:45.184Z,8.97
2023-04-21T21:09:12.258Z,8.96
2023-04-21T21:11:39.041Z,8.93
2023-04-21T21:14:05.770Z,8.93
2023-04-21T21:16:32.541Z,8.91
2023-04-21T21:18:59.258Z,8.91
2023-04-21T21:21:26.563Z,8.91
2023-04-21T21:23:53.452Z,8.90
2023-04-21T21:26:20.304Z,8.89
2023-04-21T21:28:47.091Z,8.85
2023-04-21T21:31:16.239Z,8.82
2023-04-21T21:33:43.201Z,8.80
2023-04-21T21:36:10.029Z,8.78
2023-04-21T21:38:37.050Z,8.77
2023-04-21T21:41:05.128Z,8.75
2023-04-21T21:43:32.631Z,8.73
2023-04-21T21:45:59.502Z,8.71
2023-04-21T21:48:26.354Z,8.70
2023-04-21T21:50:53.193Z,8.70
2023-04-21T21:53:20.273Z,8.70
2023-04-21T21:55:47.356Z,8.68
2023-04-21T21:58:14.644Z,8.67
2023-04-21T22:00:42.117Z,8.65
2023-04-21T22:03:08.897Z,8.65
2023-04-21T22:05:35.789Z,8.61
2023-04-21T22:08:03.523Z,8.60
2023-04-21T22:10:30.509Z,8.58
2023-04-21T22:12:57.312Z,8.54
2023-04-21T22:15:24.045Z,8.52
2023-04-21T22:17:51.151Z,8.51
2023-04-21T22:20:18.670Z,8.49
2023-04-21T22:22:48.347Z,8.46
2023-04-21T22:25:15.201Z,8.44
2023-04-21T22:27:42.031Z,8.42
2023-04-21T22:30:09.065Z,8.41
2023-04-21T22:32:36.745Z,8.41
2023-04-21T22:35:03.913Z,8.39
2023-04-21T22:37:31.494Z,8.37
2023-04-21T22:39:59.292Z,8.35
2023-04-21T22:42:26.302Z,8.33
2023-04-21T22:44:53.181Z,8.32
2023-04-21T22:47:20.115Z,8.29
2023-04-21T22:49:47.135Z,8.26
2023-04-21T22:52:13.901Z,8.24
2023-04-21T22:54:43.648Z,8.21
2023-04-21T22:57:10.750Z,8.18
2023-04-21T22:59:37.901Z,8.15
2023-04-21T23:02:05.241Z,8.12
2023-04-21T23:04:34.600Z,8.10
2023-04-21T23:07:01.396Z,8.08
2023-04-21T23:09:28.656Z,8.04
2023-04-21T23:11:55.664Z,8.02
2023-04-21T23:14:22.812Z,8.02
2023-04-21T23:16:49.650Z,8.03
2023-04-21T23:19:16.506Z,8.00
2023-04-21T23:21:43.894Z,7.98
2023-04-21T23:24:10.572Z,7.97
2023-04-21T23:26:38.316Z,7.96
2023-04-21T23:29:05.430Z,7.95
2023-04-21T23:31:32.690Z,7.92
2023-04-21T23:34:00.129Z,7.90
2023-04-21T23:36:27.103Z,7.89
2023-04-21T23:38:54.043Z,7.86
2023-04-21T23:41:20.956Z,7.85
2023-04-21T23:43:47.886Z,7.84
2023-04-21T23:46:15.011Z,7.80
2023-04-21T23:48:42.107Z,7.77
2023-04-21T23:51:08.830Z,7.71
2023-04-21T23:53:36.327Z,7.66
2023-04-21T23:56:05.888Z,7.59
2023-04-21T23:58:32.832Z,7.53
